createdAt,value
2019-03-31T00:00:46.450Z,100760.83
2019-03-31T00:03:19.768Z,100768.13
2019-03-31T00:05:51.484Z,100766.59
2019-03-31T00:08:24.763Z,100763.72
2019-03-31T00:10:56.574Z,100762.84
2019-03-31T00:13:29.318Z,100767.78
2019-03-31T00:16:03.313Z,100767.78
2019-03-31T00:18:36.072Z,100762.86
2019-03-31T00:21:08.948Z,100768.13
2019-03-31T00:23:41.865Z,100768.81
2019-03-31T00:26:14.824Z,100766.09
2019-03-31T00:28:47.822Z,100768.81
2019-03-31T00:31:22.485Z,100772.36
2019-03-31T00:33:55.081Z,100772.72
2019-03-31T00:36:28.023Z,100772.55
2019-03-31T00:39:00.960Z,100769.98
2019-03-31T00:41:33.858Z,100766.06
2019-03-31T00:44:06.793Z,100764.38
2019-03-31T00:46:39.738Z,100766.92
2019-03-31T00:49:11.619Z,100759.94
2019-03-31T00:51:44.269Z,100767.09
2019-03-31T00:54:17.760Z,100767.09
2019-03-31T00:56:49.452Z,100773.89
2019-03-31T00:59:22.069Z,100769.95
2019-03-31T01:01:57.326Z,100762.30
2019-03-31T01:04:31.312Z,100770.64
2019-03-31T01:07:04.782Z,100777.11
2019-03-31T01:09:36.878Z,100771.31
2019-03-31T01:12:09.916Z,100777.26
2019-03-31T01:14:43.021Z,100776.09
2019-03-31T01:17:18.817Z,100767.56
2019-03-31T01:19:51.070Z,100768.75
2019-03-31T01:22:24.083Z,100770.62
2019-03-31T01:24:56.938Z,100772.31
2019-03-31T01:27:30.031Z,100766.05
2019-03-31T01:30:03.378Z,100761.45
2019-03-31T01:32:36.276Z,100768.41
2019-03-31T01:35:10.667Z,100769.41
2019-03-31T01:37:43.733Z,100772.48
2019-03-31T01:40:15.633Z,100772.48
2019-03-31T01:42:49.046Z,100763.64
2019-03-31T01:45:22.002Z,100763.64
2019-03-31T01:47:54.903Z,100779.09
2019-03-31T01:50:28.379Z,100783.17
2019-03-31T01:53:01.410Z,100783.51
2019-03-31T01:55:34.080Z,100781.30
2019-03-31T01:58:07.316Z,100785.20
2019-03-31T02:00:45.602Z,100789.80
2019-03-31T02:03:18.589Z,100761.39
2019-03-31T02:05:51.314Z,100763.59
2019-03-31T02:08:24.033Z,100763.59
2019-03-31T02:10:57.014Z,100778.41
2019-03-31T02:13:29.899Z,100787.26
2019-03-31T02:16:03.788Z,100781.64
2019-03-31T02:18:36.807Z,100786.05
2019-03-31T02:21:09.784Z,100783.16
2019-03-31T02:23:41.689Z,100786.72
2019-03-31T02:26:13.452Z,100782.46
2019-03-31T02:28:46.057Z,100789.61
2019-03-31T02:31:19.313Z,100787.88
2019-03-31T02:33:52.766Z,100789.08
2019-03-31T02:36:24.483Z,100791.28
2019-03-31T02:38:57.322Z,100787.88
2019-03-31T02:41:29.984Z,100788.39
2019-03-31T02:44:02.934Z,100789.59
2019-03-31T02:46:35.829Z,100796.53
2019-03-31T02:49:08.776Z,100793.43
2019-03-31T02:51:41.857Z,100791.95
2019-03-31T02:54:15.337Z,100792.25
2019-03-31T02:56:48.067Z,100797.69
2019-03-31T02:59:21.462Z,100797.98
2019-03-31T03:01:54.135Z,100797.14
2019-03-31T03:04:27.052Z,100800.86
2019-03-31T03:06:59.901Z,100801.40
2019-03-31T03:09:33.324Z,100801.03
2019-03-31T03:12:06.062Z,100800.70
2019-03-31T03:14:39.046Z,100795.60
2019-03-31T03:17:11.892Z,100802.22
2019-03-31T03:19:44.877Z,100794.55
2019-03-31T03:22:17.838Z,100800.48
2019-03-31T03:24:50.779Z,100799.64
2019-03-31T03:27:22.640Z,100798.14
2019-03-31T03:29:55.383Z,100797.77
2019-03-31T03:32:28.312Z,100797.77
2019-03-31T03:35:01.341Z,100812.89
2019-03-31T03:37:34.075Z,100807.64
2019-03-31T03:40:06.940Z,100810.84
2019-03-31T03:42:39.865Z,100819.69
2019-03-31T03:45:12.864Z,100817.15
2019-03-31T03:47:45.867Z,100815.98
2019-03-31T03:50:19.108Z,100819.69
2019-03-31T03:52:51.954Z,100820.86
2019-03-31T03:55:24.881Z,100813.19
2019-03-31T03:57:57.863Z,100821.70
2019-03-31T04:00:30.871Z,100821.85
2019-03-31T04:03:03.851Z,100817.78
2019-03-31T04:05:36.724Z,100817.96
2019-03-31T04:08:08.631Z,100818.29
2019-03-31T04:11:29.276Z,100821.01
2019-03-31T04:14:02.408Z,100822.00
2019-03-31T04:16:35.353Z,100822.66
2019-03-31T04:19:08.068Z,100823.02
2019-03-31T04:21:41.045Z,100820.27
2019-03-31T04:24:13.993Z,100827.91
2019-03-31T04:26:46.894Z,100827.05
2019-03-31T04:29:19.861Z,100831.61
2019-03-31T04:31:53.363Z,100829.11
2019-03-31T04:34:26.870Z,100836.38
2019-03-31T04:37:00.326Z,100842.00
2019-03-31T04:39:33.413Z,100847.09
2019-03-31T04:42:06.979Z,100844.70
2019-03-31T04:44:41.319Z,100854.22
2019-03-31T04:47:14.892Z,100850.32
2019-03-31T04:49:48.350Z,100851.35
2019-03-31T04:52:21.899Z,100853.55
2019-03-31T04:54:55.473Z,100854.73
2019-03-31T04:57:28.844Z,100861.98
2019-03-31T05:00:02.922Z,100863.39
2019-03-31T05:05:21.421Z,100858.56
2019-03-31T05:07:54.885Z,100864.06
2019-03-31T05:10:28.434Z,100868.45
2019-03-31T05:13:01.823Z,100871.60
2019-03-31T05:15:35.368Z,100872.02
2019-03-31T05:18:08.880Z,100876.14
2019-03-31T05:20:42.465Z,100882.13
2019-03-31T05:23:16.320Z,100878.03
2019-03-31T05:25:49.839Z,100882.64
2019-03-31T05:28:23.065Z,100883.83
2019-03-31T05:30:56.861Z,100893.87
2019-03-31T05:33:30.321Z,100892.67
2019-03-31T05:36:03.636Z,100896.24
2019-03-31T05:38:37.051Z,100896.92
2019-03-31T05:41:10.436Z,100896.92
2019-03-31T05:43:43.877Z,100897.09
2019-03-31T05:46:17.386Z,100900.30
2019-03-31T05:48:51.312Z,100909.33
2019-03-31T05:51:25.320Z,100901.66
2019-03-31T05:53:58.465Z,100906.62
2019-03-31T05:56:31.868Z,100912.91
2019-03-31T05:59:05.347Z,100913.95
2019-03-31T06:01:38.581Z,100912.58
2019-03-31T06:04:11.874Z,100920.42
2019-03-31T06:06:45.314Z,100920.42
2019-03-31T06:09:18.623Z,100926.54
2019-03-31T06:11:53.533Z,100929.94
2019-03-31T06:14:27.320Z,100929.94
2019-03-31T06:17:00.557Z,100927.55
2019-03-31T06:19:33.781Z,100933.33
2019-03-31T06:22:07.281Z,100933.28
2019-03-31T06:24:40.504Z,100941.40
2019-03-31T06:27:15.768Z,100934.23
2019-03-31T06:29:48.915Z,100939.35
2019-03-31T06:32:22.915Z,100938.66
2019-03-31T06:34:56.814Z,100941.05
2019-03-31T06:37:30.843Z,100949.19
2019-03-31T06:40:04.749Z,100946.29
2019-03-31T06:42:36.895Z,100955.80
2019-03-31T06:45:10.591Z,100956.31
2019-03-31T06:47:44.036Z,100965.78
2019-03-31T06:50:17.405Z,100965.78
2019-03-31T06:52:50.572Z,100971.08
2019-03-31T06:55:23.264Z,100978.57
2019-03-31T06:57:56.116Z,100978.23
2019-03-31T07:00:30.129Z,100986.25
2019-03-31T07:03:03.309Z,100992.87
2019-03-31T07:05:36.838Z,100993.03
2019-03-31T07:08:10.484Z,100989.13
2019-03-31T07:10:44.278Z,100996.29
2019-03-31T07:13:18.376Z,101000.86
2019-03-31T07:15:52.323Z,101005.12
2019-03-31T07:18:25.850Z,101014.13
2019-03-31T07:21:00.150Z,101017.19
2019-03-31T07:23:34.525Z,101013.09
2019-03-31T07:26:08.694Z,101013.97
2019-03-31T07:28:42.275Z,101016.50
2019-03-31T07:31:15.910Z,101016.69
2019-03-31T07:33:49.414Z,101021.77
2019-03-31T07:36:22.875Z,101024.16
2019-03-31T07:38:56.430Z,101029.59
2019-03-31T07:41:29.897Z,101013.94
2019-03-31T07:44:03.374Z,101013.94
2019-03-31T07:46:36.343Z,101033.70
2019-03-31T07:49:09.595Z,101037.78
2019-03-31T07:51:43.098Z,101033.34
2019-03-31T07:54:18.853Z,101033.34
2019-03-31T07:56:53.335Z,101042.88
2019-03-31T07:59:27.953Z,101057.84
2019-03-31T08:02:01.840Z,101060.14
2019-03-31T08:04:36.624Z,101057.78
2019-03-31T08:07:14.324Z,101067.16
2019-03-31T08:09:47.866Z,101067.16
2019-03-31T08:12:21.431Z,101080.78
2019-03-31T08:14:54.966Z,101071.93
2019-03-31T08:17:28.370Z,101079.61
2019-03-31T08:20:02.097Z,101083.54
2019-03-31T08:22:38.445Z,101084.87
2019-03-31T08:25:12.331Z,101087.09
2019-03-31T08:27:45.381Z,101087.27
2019-03-31T08:30:19.375Z,101091.88
2019-03-31T08:32:52.497Z,101095.32
2019-03-31T08:35:25.874Z,101099.73
2019-03-31T08:37:59.418Z,101099.89
2019-03-31T08:40:33.318Z,101107.36
2019-03-31T08:43:07.092Z,101103.11
2019-03-31T08:45:40.398Z,101111.10
2019-03-31T08:48:16.398Z,101115.19
2019-03-31T08:50:51.593Z,101122.16
2019-03-31T08:53:31.458Z,101123.97
2019-03-31T08:56:08.556Z,101123.97
2019-03-31T08:58:47.731Z,101134.17
2019-03-31T09:01:22.122Z,101134.22
2019-03-31T09:03:55.913Z,101135.73
2019-03-31T09:06:29.444Z,101141.70
2019-03-31T09:09:03.327Z,101142.58
2019-03-31T09:11:36.880Z,101147.84
2019-03-31T09:14:10.614Z,101152.28
2019-03-31T09:16:43.701Z,101154.83
2019-03-31T09:19:17.274Z,101154.63
2019-03-31T09:21:50.538Z,101158.38
2019-03-31T09:24:23.858Z,101161.25
2019-03-31T09:26:57.405Z,101157.83
2019-03-31T09:29:32.282Z,101162.25
2019-03-31T09:32:05.585Z,101162.22
2019-03-31T09:34:39.332Z,101164.42
2019-03-31T09:37:12.861Z,101161.70
2019-03-31T09:39:46.406Z,101167.81
2019-03-31T09:42:20.107Z,101167.81
2019-03-31T09:44:53.903Z,101169.51
2019-03-31T09:47:28.712Z,101164.76
2019-03-31T09:50:01.285Z,101165.64
2019-03-31T09:52:34.845Z,101161.01
2019-03-31T09:55:09.330Z,101163.25
2019-03-31T09:57:43.472Z,101163.73
2019-03-31T10:00:39.869Z,101160.34
2019-03-31T10:03:13.388Z,101162.22
2019-03-31T10:05:48.070Z,101166.16
2019-03-31T10:08:22.544Z,101169.17
2019-03-31T10:10:56.096Z,101170.53
2019-03-31T10:13:29.606Z,101170.53
2019-03-31T10:16:03.098Z,101155.49
2019-03-31T10:18:41.676Z,101155.49
2019-03-31T10:21:14.288Z,101176.83
2019-03-31T10:23:49.439Z,101171.90
2019-03-31T10:26:31.847Z,101170.02
2019-03-31T10:28:58.675Z,101170.50
2019-03-31T10:31:32.332Z,101162.30
2019-03-31T10:34:05.879Z,101162.30
2019-03-31T10:36:44.755Z,101172.70
2019-03-31T10:39:14.887Z,101179.48
2019-03-31T10:41:48.331Z,101183.41
2019-03-31T10:44:21.829Z,101184.92
2019-03-31T10:46:58.439Z,101189.52
2019-03-31T10:49:30.290Z,101189.52
2019-03-31T10:52:03.830Z,101188.34
2019-03-31T10:54:37.433Z,101184.92
2019-03-31T10:57:10.820Z,101190.88
2019-03-31T10:59:44.419Z,101192.09
2019-03-31T11:02:17.827Z,101186.47
2019-03-31T11:04:51.829Z,101192.24
2019-03-31T11:07:25.990Z,101191.20
2019-03-31T11:09:59.459Z,101189.15
2019-03-31T11:12:32.853Z,101191.35
2019-03-31T11:15:06.522Z,101195.77
2019-03-31T11:17:39.899Z,101200.14
2019-03-31T11:20:14.327Z,101198.25
2019-03-31T11:22:55.867Z,101200.18
2019-03-31T11:25:30.700Z,101201.20
2019-03-31T11:28:04.905Z,101199.15
2019-03-31T11:30:39.498Z,101196.43
2019-03-31T11:33:12.906Z,101196.61
2019-03-31T11:35:46.705Z,101201.06
2019-03-31T11:38:19.284Z,101199.19
2019-03-31T11:40:52.883Z,101206.00
2019-03-31T11:43:26.333Z,101202.25
2019-03-31T11:45:59.870Z,101204.16
2019-03-31T11:48:33.370Z,101203.97
2019-03-31T11:51:07.339Z,101209.05
2019-03-31T11:53:40.878Z,101207.50
2019-03-31T11:56:15.026Z,101206.51
2019-03-31T11:58:48.646Z,101210.59
2019-03-31T12:01:23.769Z,101213.65
2019-03-31T12:03:57.617Z,101207.69
2019-03-31T12:06:32.997Z,101210.09
2019-03-31T12:09:07.632Z,101210.03
2019-03-31T12:11:41.644Z,101212.95
2019-03-31T12:14:15.682Z,101191.00
2019-03-31T12:16:49.683Z,101206.25
2019-03-31T12:19:25.724Z,101210.00
2019-03-31T12:21:59.690Z,101193.30
2019-03-31T12:24:34.684Z,101210.02
2019-03-31T12:27:09.643Z,101210.02
2019-03-31T12:29:43.645Z,101200.84
2019-03-31T12:32:19.693Z,101182.23
2019-03-31T12:34:55.686Z,101179.01
2019-03-31T12:37:41.612Z,101192.66
2019-03-31T12:40:15.322Z,101192.66
2019-03-31T12:42:51.728Z,101188.05
2019-03-31T12:45:25.661Z,101171.17
2019-03-31T12:48:01.306Z,101170.98
2019-03-31T12:50:37.695Z,101170.98
2019-03-31T12:53:11.658Z,101186.32
2019-03-31T12:55:59.431Z,101185.14
2019-03-31T12:58:23.796Z,101185.14
2019-03-31T13:00:58.669Z,101182.06
2019-03-31T13:03:34.730Z,101171.12
2019-03-31T13:06:08.666Z,101162.30
2019-03-31T13:08:44.101Z,101173.20
2019-03-31T13:11:21.703Z,101173.20
2019-03-31T13:13:57.752Z,101157.16
2019-03-31T13:16:31.646Z,101159.86
2019-03-31T13:19:13.676Z,101168.17
2019-03-31T13:21:47.632Z,101168.17
2019-03-31T13:24:21.668Z,101167.27
2019-03-31T13:26:55.659Z,101165.39
2019-03-31T13:29:30.712Z,101168.78
2019-03-31T13:32:04.655Z,101158.73
2019-03-31T13:34:39.726Z,101147.30
2019-03-31T13:37:13.630Z,101177.44
2019-03-31T13:39:47.641Z,101175.17
2019-03-31T13:42:22.648Z,101170.57
2019-03-31T13:44:56.389Z,101164.76
2019-03-31T13:47:32.690Z,101164.76
2019-03-31T13:50:06.621Z,101156.03
2019-03-31T13:52:41.741Z,101157.73
2019-03-31T13:56:37.499Z,101168.31
2019-03-31T13:59:11.331Z,101167.75
2019-03-31T14:01:45.291Z,101167.75
2019-03-31T14:04:19.096Z,101168.63
2019-03-31T14:06:53.322Z,101170.14
2019-03-31T14:09:26.598Z,101169.66
2019-03-31T14:11:59.841Z,101174.38
2019-03-31T14:14:34.429Z,101174.38
2019-03-31T14:17:07.920Z,101175.20
2019-03-31T14:19:42.475Z,101168.26
2019-03-31T14:22:16.103Z,101172.27
2019-03-31T14:24:49.364Z,101175.10
2019-03-31T14:27:22.926Z,101175.11
2019-03-31T14:29:56.474Z,101176.84
2019-03-31T14:32:30.451Z,101170.70
2019-03-31T14:35:03.556Z,101175.48
2019-03-31T14:37:37.391Z,101169.92
2019-03-31T14:40:13.404Z,101168.17
2019-03-31T14:42:46.882Z,101166.69
2019-03-31T14:45:38.334Z,101162.87
2019-03-31T14:48:12.401Z,101171.08
2019-03-31T14:50:45.546Z,101167.48
2019-03-31T14:53:19.289Z,101166.92
2019-03-31T14:55:53.031Z,101166.92
2019-03-31T14:58:26.776Z,101167.44
2019-03-31T15:01:02.328Z,101175.10
2019-03-31T15:03:35.527Z,101170.68
2019-03-31T15:06:08.901Z,101169.50
2019-03-31T15:08:53.810Z,101173.71
2019-03-31T15:11:21.986Z,101173.30
2019-03-31T15:14:55.464Z,101168.81
2019-03-31T15:17:29.064Z,101174.22
2019-03-31T15:20:02.651Z,101173.52
2019-03-31T15:22:38.311Z,101175.20
2019-03-31T15:25:11.757Z,101175.20
2019-03-31T15:27:44.788Z,101174.47
2019-03-31T15:30:18.427Z,101177.89
2019-03-31T15:32:51.486Z,101180.29
2019-03-31T15:35:25.331Z,101177.67
2019-03-31T15:37:58.899Z,101177.05
2019-03-31T15:40:32.413Z,101175.53
2019-03-31T15:43:06.838Z,101176.86
2019-03-31T15:45:41.442Z,101177.70
2019-03-31T15:48:16.691Z,101178.36
2019-03-31T15:50:48.887Z,101176.98
2019-03-31T15:53:22.360Z,101176.74
2019-03-31T15:55:56.030Z,101169.95
2019-03-31T15:58:30.060Z,101181.55
2019-03-31T16:01:03.481Z,101183.09
2019-03-31T16:03:39.394Z,101175.64
2019-03-31T16:06:13.347Z,101178.52
2019-03-31T16:08:45.839Z,101186.15
2019-03-31T16:11:17.899Z,101177.46
2019-03-31T16:13:50.322Z,101183.58
2019-03-31T16:16:24.020Z,101188.33
2019-03-31T16:18:56.535Z,101183.73
2019-03-31T16:21:28.913Z,101180.19
2019-03-31T16:24:00.871Z,101179.67
2019-03-31T16:26:33.435Z,101181.67
2019-03-31T16:29:05.863Z,101180.80
2019-03-31T16:31:38.512Z,101176.16
2019-03-31T16:34:10.869Z,101182.67
2019-03-31T16:36:43.072Z,101189.77
2019-03-31T16:39:15.441Z,101180.73
2019-03-31T16:41:47.825Z,101180.64
2019-03-31T16:44:20.086Z,101183.24
2019-03-31T16:46:52.908Z,101184.79
2019-03-31T16:49:24.873Z,101185.58
2019-03-31T16:51:57.506Z,101187.27
2019-03-31T16:54:29.843Z,101182.48
2019-03-31T16:57:02.328Z,101178.92
2019-03-31T16:59:35.543Z,101183.85
2019-03-31T17:02:08.380Z,101180.77
2019-03-31T17:04:40.838Z,101181.94
2019-03-31T17:07:12.935Z,101178.38
2019-03-31T17:09:51.445Z,101183.30
2019-03-31T17:12:21.004Z,101165.87
2019-03-31T17:14:53.837Z,101165.87
2019-03-31T17:17:26.376Z,101187.20
2019-03-31T17:19:59.352Z,101185.47
2019-03-31T17:22:32.359Z,101190.36
2019-03-31T17:25:04.876Z,101191.20
2019-03-31T17:27:37.095Z,101192.45
2019-03-31T17:30:09.538Z,101197.23
2019-03-31T17:32:41.957Z,101184.22
2019-03-31T17:35:14.073Z,101184.22
2019-03-31T17:37:46.476Z,101200.80
2019-03-31T17:40:18.872Z,101199.13
2019-03-31T17:42:50.815Z,101209.51
2019-03-31T17:45:25.781Z,101206.94
2019-03-31T17:47:57.389Z,101206.42
2019-03-31T17:50:29.040Z,101202.00
2019-03-31T17:53:03.692Z,101206.94
2019-03-31T17:55:34.305Z,101208.78
2019-03-31T17:58:05.832Z,101214.72
2019-03-31T18:00:37.591Z,101212.99
2019-03-31T18:03:11.702Z,101215.53
2019-03-31T18:05:42.469Z,101215.53
2019-03-31T18:08:14.302Z,101225.21
2019-03-31T18:10:46.049Z,101228.08
2019-03-31T18:13:17.845Z,101226.35
2019-03-31T18:15:49.757Z,101226.64
2019-03-31T18:18:20.487Z,101228.24
2019-03-31T18:20:52.385Z,101231.16
2019-03-31T18:23:24.058Z,101231.16
2019-03-31T18:25:55.744Z,101233.17
2019-03-31T18:28:26.878Z,101234.80
2019-03-31T18:30:58.889Z,101240.56
2019-03-31T18:33:30.622Z,101241.78
2019-03-31T18:36:02.707Z,101247.66
2019-03-31T18:38:33.584Z,101247.66
2019-03-31T18:41:05.384Z,101245.18
2019-03-31T18:43:50.681Z,101245.18
2019-03-31T18:46:10.402Z,101257.56
2019-03-31T18:48:42.310Z,101258.05
2019-03-31T18:51:13.998Z,101261.60
2019-03-31T18:53:50.347Z,101259.91
2019-03-31T18:56:47.422Z,101270.41
2019-03-31T18:59:51.066Z,101268.93
2019-03-31T19:02:36.061Z,101275.25
2019-03-31T19:05:25.958Z,101277.87
2019-03-31T19:08:15.998Z,101279.81
2019-03-31T19:11:06.327Z,101282.85
2019-03-31T19:14:03.063Z,101286.93
2019-03-31T19:16:55.725Z,101291.61
2019-03-31T19:19:45.460Z,101283.37
2019-03-31T19:22:34.694Z,101287.84
2019-03-31T19:25:34.267Z,101285.88
2019-03-31T19:28:17.532Z,101289.19
2019-03-31T19:31:04.307Z,101292.91
2019-03-31T19:33:58.801Z,101292.91
2019-03-31T19:36:44.791Z,101290.82
2019-03-31T19:39:41.335Z,101294.20
2019-03-31T19:42:39.394Z,101297.56
2019-03-31T19:45:42.497Z,101305.92
2019-03-31T19:48:22.732Z,101300.34
2019-03-31T19:51:18.260Z,101310.63
2019-03-31T19:54:08.561Z,101319.25
2019-03-31T19:56:56.070Z,101314.46
2019-03-31T19:59:52.309Z,101312.13
2019-03-31T20:02:35.723Z,101320.61
2019-03-31T20:05:40.674Z,101313.61
2019-03-31T20:08:22.773Z,101315.94
2019-03-31T20:11:25.695Z,101328.05
2019-03-31T20:14:11.934Z,101326.22
2019-03-31T20:16:54.353Z,101324.48
2019-03-31T20:19:34.326Z,101323.89
2019-03-31T20:22:23.649Z,101328.48
2019-03-31T20:25:19.080Z,101305.01
2019-03-31T20:27:59.709Z,101305.01
2019-03-31T20:30:43.582Z,101325.23
2019-03-31T20:33:34.070Z,101307.27
2019-03-31T20:36:30.444Z,101307.27
2019-03-31T20:39:20.762Z,101326.50
2019-03-31T20:41:58.309Z,101334.03
2019-03-31T20:44:29.858Z,101330.81
2019-03-31T20:47:01.435Z,101335.79
2019-03-31T20:49:33.305Z,101337.09
2019-03-31T20:52:06.727Z,101337.20
2019-03-31T20:54:38.647Z,101343.66
2019-03-31T20:57:14.730Z,101331.23
2019-03-31T20:59:48.822Z,101340.75
2019-03-31T21:02:22.741Z,101340.48
2019-03-31T21:04:55.732Z,101339.27
2019-03-31T21:07:27.675Z,101358.36
2019-03-31T21:10:00.721Z,101341.75
2019-03-31T21:12:32.668Z,101356.25
2019-03-31T21:15:05.713Z,101348.95
2019-03-31T21:17:38.703Z,101353.06
2019-03-31T21:20:11.712Z,101344.64
2019-03-31T21:22:43.654Z,101365.86
2019-03-31T21:25:36.710Z,101362.47
2019-03-31T21:28:08.657Z,101372.59
2019-03-31T21:30:42.662Z,101367.73
2019-03-31T21:33:14.580Z,101360.88
2019-03-31T21:35:48.813Z,101373.69
2019-03-31T21:38:20.615Z,101375.04
2019-03-31T21:40:52.671Z,101375.04
2019-03-31T21:43:25.658Z,101371.23
2019-03-31T21:45:58.721Z,101370.59
2019-03-31T21:48:30.670Z,101372.93
2019-03-31T21:51:03.684Z,101363.52
2019-03-31T21:53:36.693Z,101378.94
2019-03-31T21:56:09.696Z,101365.05
2019-03-31T21:58:42.716Z,101391.38
2019-03-31T22:01:14.637Z,101388.45
2019-03-31T22:03:50.717Z,101388.75
2019-03-31T22:06:22.686Z,101371.93
2019-03-31T22:08:55.797Z,101389.92
2019-03-31T22:11:27.641Z,101395.91
2019-03-31T22:14:00.714Z,101392.41
2019-03-31T22:16:32.498Z,101392.41
2019-03-31T22:21:28.757Z,101393.16
2019-03-31T22:23:59.503Z,101394.20
2019-03-31T22:26:31.373Z,101398.41
2019-03-31T22:29:03.068Z,101397.94
2019-03-31T22:31:34.794Z,101398.67
2019-03-31T22:34:05.779Z,101401.94
2019-03-31T22:36:38.036Z,101408.80
2019-03-31T22:39:10.462Z,101408.09
2019-03-31T22:41:42.858Z,101406.14
2019-03-31T22:44:14.950Z,101402.14
2019-03-31T22:46:54.179Z,101401.39
2019-03-31T22:49:19.898Z,101400.45
2019-03-31T22:51:52.330Z,101406.03
2019-03-31T22:54:25.329Z,101401.61
2019-03-31T22:56:57.855Z,101402.33
2019-03-31T22:59:29.873Z,101404.97
2019-03-31T23:02:01.883Z,101403.61
2019-03-31T23:04:33.884Z,101405.09
2019-03-31T23:07:06.047Z,101409.55
2019-03-31T23:09:38.285Z,101406.42
2019-03-31T23:12:10.848Z,101402.97
2019-03-31T23:14:43.031Z,101409.34
2019-03-31T23:17:15.373Z,101412.56
2019-03-31T23:19:47.864Z,101410.44
2019-03-31T23:22:19.908Z,101411.63
2019-03-31T23:24:52.111Z,101414.52
2019-03-31T23:27:25.031Z,101407.98
2019-03-31T23:29:57.337Z,101412.14
2019-03-31T23:32:29.851Z,101410.56
2019-03-31T23:35:01.891Z,101412.83
2019-03-31T23:37:33.915Z,101411.88
2019-03-31T23:40:06.558Z,101415.41
2019-03-31T23:42:39.044Z,101410.78
2019-03-31T23:45:11.362Z,101412.14
2019-03-31T23:47:43.918Z,101407.00
2019-03-31T23:50:16.371Z,101406.28
2019-03-31T23:52:48.869Z,101402.05
2019-03-31T23:55:21.333Z,101403.57
2019-03-31T23:57:53.890Z,101406.92
